sensor_id;sensor_type;location;lat;lon;timestamp;temperature;humidity
23987;DHT22;12514;52.140;5.602;2022-08-03T00:01:33;22.40;99.90
23987;DHT22;12514;52.140;5.602;2022-08-03T00:03:59;22.30;99.90
23987;DHT22;12514;52.140;5.602;2022-08-03T00:06:25;22.30;99.90
23987;DHT22;12514;52.140;5.602;2022-08-03T00:08:50;22.40;99.90
23987;DHT22;12514;52.140;5.602;2022-08-03T00:14:38;22.30;99.90
23987;DHT22;12514;52.140;5.602;2022-08-03T00:17:04;22.20;99.90
23987;DHT22;12514;52.140;5.602;2022-08-03T00:19:29;22.20;99.90
23987;DHT22;12514;52.140;5.602;2022-08-03T00:21:55;22.20;99.90
23987;DHT22;12514;52.140;5.602;2022-08-03T00:24:21;22.20;99.90
23987;DHT22;12514;52.140;5.602;2022-08-03T00:30:24;22.10;99.90
23987;DHT22;12514;52.140;5.602;2022-08-03T00:32:50;22.00;99.90
23987;DHT22;12514;52.140;5.602;2022-08-03T00:35:16;22.10;99.90
23987;DHT22;12514;52.140;5.602;2022-08-03T00:37:41;22.00;99.90
23987;DHT22;12514;52.140;5.602;2022-08-03T00:40:09;22.00;99.90
23987;DHT22;12514;52.140;5.602;2022-08-03T00:42:45;22.00;99.90
23987;DHT22;12514;52.140;5.602;2022-08-03T00:45:11;21.80;99.90
23987;DHT22;12514;52.140;5.602;2022-08-03T00:47:36;21.80;99.90
23987;DHT22;12514;52.140;5.602;2022-08-03T00:50:03;21.70;99.90
23987;DHT22;12514;52.140;5.602;2022-08-03T00:52:28;21.90;99.90
23987;DHT22;12514;52.140;5.602;2022-08-03T00:54:54;21.90;99.90
23987;DHT22;12514;52.140;5.602;2022-08-03T00:57:20;21.90;99.90
23987;DHT22;12514;52.140;5.602;2022-08-03T00:59:45;21.90;99.90
23987;DHT22;12514;52.140;5.602;2022-08-03T01:02:11;22.00;99.90
23987;DHT22;12514;52.140;5.602;2022-08-03T01:04:36;21.90;99.90
23987;DHT22;12514;52.140;5.602;2022-08-03T01:07:24;21.80;99.90
23987;DHT22;12514;52.140;5.602;2022-08-03T01:10:01;21.70;99.90
23987;DHT22;12514;52.140;5.602;2022-08-03T01:15:48;21.60;99.90
23987;DHT22;12514;52.140;5.602;2022-08-03T01:18:40;21.50;99.90
23987;DHT22;12514;52.140;5.602;2022-08-03T01:21:15;21.60;99.90
23987;DHT22;12514;52.140;5.602;2022-08-03T01:26:52;21.80;99.90
23987;DHT22;12514;52.140;5.602;2022-08-03T01:29:30;21.60;99.90
23987;DHT22;12514;52.140;5.602;2022-08-03T01:32:01;21.60;99.90
23987;DHT22;12514;52.140;5.602;2022-08-03T01:34:31;21.50;99.90
23987;DHT22;12514;52.140;5.602;2022-08-03T01:36:58;21.50;99.90
23987;DHT22;12514;52.140;5.602;2022-08-03T01:39:27;21.50;99.90
23987;DHT22;12514;52.140;5.602;2022-08-03T01:41:58;21.40;99.90
23987;DHT22;12514;52.140;5.602;2022-08-03T01:44:28;21.40;99.90
23987;DHT22;12514;52.140;5.602;2022-08-03T01:46:57;21.40;99.90
23987;DHT22;12514;52.140;5.602;2022-08-03T01:49:24;21.30;99.90
23987;DHT22;12514;52.140;5.602;2022-08-03T01:51:51;21.30;99.90
23987;DHT22;12514;52.140;5.602;2022-08-03T01:54:18;21.20;99.90
23987;DHT22;12514;52.140;5.602;2022-08-03T01:56:45;21.30;99.90
23987;DHT22;12514;52.140;5.602;2022-08-03T01:59:13;21.30;99.90
23987;DHT22;12514;52.140;5.602;2022-08-03T02:01:40;21.20;99.90
23987;DHT22;12514;52.140;5.602;2022-08-03T02:04:08;21.20;99.90
23987;DHT22;12514;52.140;5.602;2022-08-03T02:06:36;21.30;99.90
23987;DHT22;12514;52.140;5.602;2022-08-03T02:09:03;21.30;99.90
23987;DHT22;12514;52.140;5.602;2022-08-03T02:11:31;21.20;99.90
23987;DHT22;12514;52.140;5.602;2022-08-03T02:14:00;21.20;99.90
23987;DHT22;12514;52.140;5.602;2022-08-03T02:16:27;21.10;99.90
23987;DHT22;12514;52.140;5.602;2022-08-03T02:18:56;21.20;99.90
23987;DHT22;12514;52.140;5.602;2022-08-03T02:21:22;21.20;99.90
23987;DHT22;12514;52.140;5.602;2022-08-03T02:23:48;21.10;99.90
23987;DHT22;12514;52.140;5.602;2022-08-03T02:26:16;21.10;99.90
23987;DHT22;12514;52.140;5.602;2022-08-03T02:28:46;21.10;99.90
23987;DHT22;12514;52.140;5.602;2022-08-03T02:31:18;21.00;99.90
23987;DHT22;12514;52.140;5.602;2022-08-03T02:33:49;20.90;99.90
23987;DHT22;12514;52.140;5.602;2022-08-03T02:36:18;20.80;99.90
23987;DHT22;12514;52.140;5.602;2022-08-03T02:38:48;20.90;99.90
23987;DHT22;12514;52.140;5.602;2022-08-03T02:41:17;21.00;99.90
23987;DHT22;12514;52.140;5.602;2022-08-03T02:43:47;21.00;99.90
23987;DHT22;12514;52.140;5.602;2022-08-03T02:46:17;21.00;99.90
23987;DHT22;12514;52.140;5.602;2022-08-03T02:48:45;20.90;99.90
23987;DHT22;12514;52.140;5.602;2022-08-03T02:51:12;21.00;99.90
23987;DHT22;12514;52.140;5.602;2022-08-03T02:53:39;21.10;99.90
23987;DHT22;12514;52.140;5.602;2022-08-03T02:56:06;21.10;99.90
23987;DHT22;12514;52.140;5.602;2022-08-03T02:58:33;21.00;99.90
23987;DHT22;12514;52.140;5.602;2022-08-03T03:00:59;20.90;99.90
23987;DHT22;12514;52.140;5.602;2022-08-03T03:03:25;20.90;99.90
23987;DHT22;12514;52.140;5.602;2022-08-03T03:05:52;20.90;99.90
23987;DHT22;12514;52.140;5.602;2022-08-03T03:08:18;20.90;99.90
23987;DHT22;12514;52.140;5.602;2022-08-03T03:10:45;20.90;99.90
23987;DHT22;12514;52.140;5.602;2022-08-03T03:13:13;20.90;99.90
23987;DHT22;12514;52.140;5.602;2022-08-03T03:15:40;20.90;99.90
23987;DHT22;12514;52.140;5.602;2022-08-03T03:18:06;20.80;99.90
23987;DHT22;12514;52.140;5.602;2022-08-03T03:20:36;20.70;99.90
23987;DHT22;12514;52.140;5.602;2022-08-03T03:23:04;20.80;99.90
23987;DHT22;12514;52.140;5.602;2022-08-03T03:25:31;20.70;99.90
23987;DHT22;12514;52.140;5.602;2022-08-03T03:27:58;20.70;99.90
23987;DHT22;12514;52.140;5.602;2022-08-03T03:30:24;20.60;99.90
23987;DHT22;12514;52.140;5.602;2022-08-03T03:32:50;20.50;99.90
23987;DHT22;12514;52.140;5.602;2022-08-03T03:35:16;20.60;99.90
23987;DHT22;12514;52.140;5.602;2022-08-03T03:37:42;20.60;99.90
23987;DHT22;12514;52.140;5.602;2022-08-03T03:40:08;20.50;99.90
23987;DHT22;12514;52.140;5.602;2022-08-03T03:45:57;20.60;99.90
23987;DHT22;12514;52.140;5.602;2022-08-03T03:48:24;20.80;99.90
23987;DHT22;12514;52.140;5.602;2022-08-03T03:50:51;20.80;99.90
23987;DHT22;12514;52.140;5.602;2022-08-03T03:53:17;20.80;99.90
23987;DHT22;12514;52.140;5.602;2022-08-03T03:55:43;20.70;99.90
23987;DHT22;12514;52.140;5.602;2022-08-03T03:58:08;20.60;99.90
23987;DHT22;12514;52.140;5.602;2022-08-03T04:00:34;20.70;99.90
23987;DHT22;12514;52.140;5.602;2022-08-03T04:02:59;20.60;99.90
23987;DHT22;12514;52.140;5.602;2022-08-03T04:05:25;20.60;99.90
23987;DHT22;12514;52.140;5.602;2022-08-03T04:08:10;20.60;99.90
23987;DHT22;12514;52.140;5.602;2022-08-03T04:11:12;20.60;99.90
23987;DHT22;12514;52.140;5.602;2022-08-03T04:16:15;20.50;99.90
23987;DHT22;12514;52.140;5.602;2022-08-03T04:18:45;20.50;99.90
23987;DHT22;12514;52.140;5.602;2022-08-03T04:21:14;20.50;99.90
23987;DHT22;12514;52.140;5.602;2022-08-03T04:23:45;20.50;99.90
23987;DHT22;12514;52.140;5.602;2022-08-03T04:26:13;20.50;99.90
23987;DHT22;12514;52.140;5.602;2022-08-03T04:28:40;20.50;99.90
23987;DHT22;12514;52.140;5.602;2022-08-03T04:31:07;20.50;99.90
23987;DHT22;12514;52.140;5.602;2022-08-03T04:33:35;20.60;99.90
23987;DHT22;12514;52.140;5.602;2022-08-03T04:36:04;20.60;99.90
23987;DHT22;12514;52.140;5.602;2022-08-03T04:38:36;20.50;99.90
23987;DHT22;12514;52.140;5.602;2022-08-03T04:41:03;20.60;99.90
23987;DHT22;12514;52.140;5.602;2022-08-03T04:43:32;20.50;99.90
23987;DHT22;12514;52.140;5.602;2022-08-03T04:45:58;20.50;99.90
23987;DHT22;12514;52.140;5.602;2022-08-03T04:48:24;20.50;99.90
23987;DHT22;12514;52.140;5.602;2022-08-03T04:50:50;20.50;99.90
23987;DHT22;12514;52.140;5.602;2022-08-03T04:53:16;20.50;99.90
23987;DHT22;12514;52.140;5.602;2022-08-03T04:55:42;20.50;99.90
23987;DHT22;12514;52.140;5.602;2022-08-03T05:01:30;20.70;99.90
23987;DHT22;12514;52.140;5.602;2022-08-03T05:03:56;20.60;99.90
23987;DHT22;12514;52.140;5.602;2022-08-03T05:06:21;20.60;99.90
23987;DHT22;12514;52.140;5.602;2022-08-03T05:08:47;20.50;99.90
23987;DHT22;12514;52.140;5.602;2022-08-03T05:11:14;20.60;99.90
23987;DHT22;12514;52.140;5.602;2022-08-03T05:13:40;20.50;99.90
23987;DHT22;12514;52.140;5.602;2022-08-03T05:16:05;20.60;99.90
23987;DHT22;12514;52.140;5.602;2022-08-03T05:18:31;20.70;99.90
23987;DHT22;12514;52.140;5.602;2022-08-03T05:20:57;20.60;99.90
23987;DHT22;12514;52.140;5.602;2022-08-03T05:23:22;20.70;99.90
23987;DHT22;12514;52.140;5.602;2022-08-03T05:25:51;20.70;99.90
23987;DHT22;12514;52.140;5.602;2022-08-03T05:31:39;20.80;99.90
23987;DHT22;12514;52.140;5.602;2022-08-03T05:34:17;20.70;99.90
23987;DHT22;12514;52.140;5.602;2022-08-03T05:36:43;20.80;99.90
23987;DHT22;12514;52.140;5.602;2022-08-03T05:39:09;20.90;99.90
23987;DHT22;12514;52.140;5.602;2022-08-03T05:41:35;20.90;99.90
23987;DHT22;12514;52.140;5.602;2022-08-03T05:44:00;20.80;99.90
23987;DHT22;12514;52.140;5.602;2022-08-03T05:46:31;20.80;99.90
23987;DHT22;12514;52.140;5.602;2022-08-03T05:48:57;20.70;99.90
23987;DHT22;12514;52.140;5.602;2022-08-03T05:51:23;20.80;99.90
23987;DHT22;12514;52.140;5.602;2022-08-03T05:54:03;20.90;99.90
23987;DHT22;12514;52.140;5.602;2022-08-03T05:56:38;21.00;99.90
23987;DHT22;12514;52.140;5.602;2022-08-03T05:59:15;21.10;99.90
23987;DHT22;12514;52.140;5.602;2022-08-03T06:01:41;21.00;99.90
23987;DHT22;12514;52.140;5.602;2022-08-03T06:04:07;21.80;99.90
23987;DHT22;12514;52.140;5.602;2022-08-03T06:06:44;21.20;99.90
23987;DHT22;12514;52.140;5.602;2022-08-03T06:09:11;21.20;99.90
23987;DHT22;12514;52.140;5.602;2022-08-03T06:15:03;21.20;99.90
23987;DHT22;12514;52.140;5.602;2022-08-03T06:17:48;21.30;99.90
23987;DHT22;12514;52.140;5.602;2022-08-03T06:20:19;21.30;99.90
23987;DHT22;12514;52.140;5.602;2022-08-03T06:22:53;21.30;99.90
23987;DHT22;12514;52.140;5.602;2022-08-03T06:25:25;21.30;99.90
23987;DHT22;12514;52.140;5.602;2022-08-03T06:31:14;21.60;99.90
23987;DHT22;12514;52.140;5.602;2022-08-03T06:33:42;21.50;99.90
23987;DHT22;12514;52.140;5.602;2022-08-03T06:36:10;21.40;99.90
23987;DHT22;12514;52.140;5.602;2022-08-03T06:38:36;21.50;99.90
23987;DHT22;12514;52.140;5.602;2022-08-03T06:41:02;21.60;99.90
23987;DHT22;12514;52.140;5.602;2022-08-03T06:47:08;21.70;99.90
23987;DHT22;12514;52.140;5.602;2022-08-03T06:49:35;21.80;99.90
23987;DHT22;12514;52.140;5.602;2022-08-03T06:52:08;21.90;99.90
23987;DHT22;12514;52.140;5.602;2022-08-03T06:54:34;21.80;99.90
23987;DHT22;12514;52.140;5.602;2022-08-03T06:57:01;21.70;99.90
23987;DHT22;12514;52.140;5.602;2022-08-03T06:59:30;22.20;99.90
23987;DHT22;12514;52.140;5.602;2022-08-03T07:01:56;22.20;99.90
23987;DHT22;12514;52.140;5.602;2022-08-03T07:04:24;22.20;99.90
23987;DHT22;12514;52.140;5.602;2022-08-03T07:06:53;22.20;99.90
23987;DHT22;12514;52.140;5.602;2022-08-03T07:09:32;22.30;99.90
23987;DHT22;12514;52.140;5.602;2022-08-03T07:11:57;23.00;99.90
23987;DHT22;12514;52.140;5.602;2022-08-03T07:14:23;23.40;99.90
23987;DHT22;12514;52.140;5.602;2022-08-03T07:16:52;22.10;99.90
23987;DHT22;12514;52.140;5.602;2022-08-03T07:19:19;22.00;99.90
23987;DHT22;12514;52.140;5.602;2022-08-03T07:21:45;22.10;99.90
23987;DHT22;12514;52.140;5.602;2022-08-03T07:24:11;22.10;99.90
23987;DHT22;12514;52.140;5.602;2022-08-03T07:29:39;22.20;99.90
23987;DHT22;12514;52.140;5.602;2022-08-03T07:32:05;22.30;99.90
23987;DHT22;12514;52.140;5.602;2022-08-03T07:34:31;22.30;99.90
23987;DHT22;12514;52.140;5.602;2022-08-03T07:36:56;22.50;99.90
23987;DHT22;12514;52.140;5.602;2022-08-03T07:39:22;22.80;99.90
23987;DHT22;12514;52.140;5.602;2022-08-03T07:41:48;22.90;99.90
23987;DHT22;12514;52.140;5.602;2022-08-03T07:44:19;23.10;99.90
23987;DHT22;12514;52.140;5.602;2022-08-03T07:46:45;23.20;99.90
23987;DHT22;12514;52.140;5.602;2022-08-03T07:49:11;23.30;99.90
23987;DHT22;12514;52.140;5.602;2022-08-03T07:51:37;23.30;99.90
23987;DHT22;12514;52.140;5.602;2022-08-03T07:54:03;23.30;99.90
23987;DHT22;12514;52.140;5.602;2022-08-03T07:56:29;23.40;99.90
23987;DHT22;12514;52.140;5.602;2022-08-03T07:58:55;23.50;99.90
23987;DHT22;12514;52.140;5.602;2022-08-03T08:01:21;23.60;99.90
23987;DHT22;12514;52.140;5.602;2022-08-03T08:03:47;23.60;99.90
23987;DHT22;12514;52.140;5.602;2022-08-03T08:06:13;23.70;99.90
23987;DHT22;12514;52.140;5.602;2022-08-03T08:08:39;23.80;99.90
23987;DHT22;12514;52.140;5.602;2022-08-03T08:11:05;23.80;99.90
23987;DHT22;12514;52.140;5.602;2022-08-03T08:13:31;23.90;99.90
23987;DHT22;12514;52.140;5.602;2022-08-03T08:15:57;23.90;99.90
23987;DHT22;12514;52.140;5.602;2022-08-03T08:18:22;23.90;99.90
23987;DHT22;12514;52.140;5.602;2022-08-03T08:20:49;24.00;99.90
23987;DHT22;12514;52.140;5.602;2022-08-03T08:23:15;24.10;99.90
23987;DHT22;12514;52.140;5.602;2022-08-03T08:25:47;24.30;99.90
23987;DHT22;12514;52.140;5.602;2022-08-03T08:28:13;24.30;99.90
23987;DHT22;12514;52.140;5.602;2022-08-03T08:30:38;24.40;99.90
23987;DHT22;12514;52.140;5.602;2022-08-03T08:33:04;24.60;99.90
23987;DHT22;12514;52.140;5.602;2022-08-03T08:35:29;24.60;99.90
23987;DHT22;12514;52.140;5.602;2022-08-03T08:37:55;24.60;99.90
23987;DHT22;12514;52.140;5.602;2022-08-03T08:40:21;24.60;99.90
23987;DHT22;12514;52.140;5.602;2022-08-03T08:42:47;24.50;99.90
23987;DHT22;12514;52.140;5.602;2022-08-03T08:45:12;24.50;99.90
23987;DHT22;12514;52.140;5.602;2022-08-03T08:47:43;24.70;99.90
23987;DHT22;12514;52.140;5.602;2022-08-03T08:50:09;24.70;99.90
23987;DHT22;12514;52.140;5.602;2022-08-03T08:52:35;24.80;99.90
23987;DHT22;12514;52.140;5.602;2022-08-03T08:55:06;25.00;99.90
23987;DHT22;12514;52.140;5.602;2022-08-03T08:57:34;25.00;99.90
23987;DHT22;12514;52.140;5.602;2022-08-03T09:00:06;25.10;99.90
23987;DHT22;12514;52.140;5.602;2022-08-03T09:02:34;25.20;99.90
23987;DHT22;12514;52.140;5.602;2022-08-03T09:05:00;25.20;99.90
23987;DHT22;12514;52.140;5.602;2022-08-03T09:07:27;25.20;99.90
23987;DHT22;12514;52.140;5.602;2022-08-03T09:09:52;25.20;99.90
23987;DHT22;12514;52.140;5.602;2022-08-03T09:12:18;25.30;99.90
23987;DHT22;12514;52.140;5.602;2022-08-03T09:14:44;25.40;99.90
23987;DHT22;12514;52.140;5.602;2022-08-03T09:17:09;25.50;99.90
23987;DHT22;12514;52.140;5.602;2022-08-03T09:19:35;25.50;99.90
23987;DHT22;12514;52.140;5.602;2022-08-03T09:22:09;25.50;99.90
23987;DHT22;12514;52.140;5.602;2022-08-03T09:24:36;25.60;99.90
23987;DHT22;12514;52.140;5.602;2022-08-03T09:27:05;25.60;99.90
23987;DHT22;12514;52.140;5.602;2022-08-03T09:29:35;25.70;99.90
23987;DHT22;12514;52.140;5.602;2022-08-03T09:32:02;25.80;99.90
23987;DHT22;12514;52.140;5.602;2022-08-03T09:34:28;25.90;99.90
23987;DHT22;12514;52.140;5.602;2022-08-03T09:36:55;25.90;99.90
23987;DHT22;12514;52.140;5.602;2022-08-03T09:39:24;26.00;99.90
23987;DHT22;12514;52.140;5.602;2022-08-03T09:42:10;26.10;99.90
23987;DHT22;12514;52.140;5.602;2022-08-03T09:44:38;26.10;99.90
23987;DHT22;12514;52.140;5.602;2022-08-03T09:47:07;26.20;99.90
23987;DHT22;12514;52.140;5.602;2022-08-03T09:49:34;26.20;99.90
23987;DHT22;12514;52.140;5.602;2022-08-03T09:52:01;26.20;99.90
23987;DHT22;12514;52.140;5.602;2022-08-03T09:54:36;26.30;99.90
23987;DHT22;12514;52.140;5.602;2022-08-03T09:57:02;26.40;99.90
23987;DHT22;12514;52.140;5.602;2022-08-03T09:59:29;26.50;99.90
23987;DHT22;12514;52.140;5.602;2022-08-03T10:01:56;26.50;99.90
23987;DHT22;12514;52.140;5.602;2022-08-03T10:04:23;26.50;99.90
23987;DHT22;12514;52.140;5.602;2022-08-03T10:07:08;26.60;99.90
23987;DHT22;12514;52.140;5.602;2022-08-03T10:09:35;26.60;99.90
23987;DHT22;12514;52.140;5.602;2022-08-03T10:12:08;26.70;99.90
23987;DHT22;12514;52.140;5.602;2022-08-03T10:14:39;26.80;99.90
23987;DHT22;12514;52.140;5.602;2022-08-03T10:17:06;26.90;99.90
23987;DHT22;12514;52.140;5.602;2022-08-03T10:19:32;27.00;99.90
23987;DHT22;12514;52.140;5.602;2022-08-03T10:22:03;27.10;99.90
23987;DHT22;12514;52.140;5.602;2022-08-03T10:24:30;27.10;99.90
23987;DHT22;12514;52.140;5.602;2022-08-03T10:27:09;27.10;99.90
23987;DHT22;12514;52.140;5.602;2022-08-03T10:29:42;27.20;99.90
23987;DHT22;12514;52.140;5.602;2022-08-03T10:35:11;27.50;99.90
23987;DHT22;12514;52.140;5.602;2022-08-03T10:40:22;27.50;99.90
23987;DHT22;12514;52.140;5.602;2022-08-03T10:42:50;27.50;99.90
23987;DHT22;12514;52.140;5.602;2022-08-03T10:45:20;27.70;99.90
23987;DHT22;12514;52.140;5.602;2022-08-03T10:47:50;27.80;99.90
23987;DHT22;12514;52.140;5.602;2022-08-03T10:50:16;27.80;99.90
23987;DHT22;12514;52.140;5.602;2022-08-03T10:53:00;27.90;99.90
23987;DHT22;12514;52.140;5.602;2022-08-03T10:55:36;27.90;99.90
23987;DHT22;12514;52.140;5.602;2022-08-03T10:58:51;27.90;99.90
23987;DHT22;12514;52.140;5.602;2022-08-03T11:01:19;27.90;99.90
23987;DHT22;12514;52.140;5.602;2022-08-03T11:06:18;28.00;99.90
23987;DHT22;12514;52.140;5.602;2022-08-03T11:08:47;28.00;99.90
23987;DHT22;12514;52.140;5.602;2022-08-03T11:14:03;28.10;99.90
23987;DHT22;12514;52.140;5.602;2022-08-03T11:16:32;28.10;99.90
23987;DHT22;12514;52.140;5.602;2022-08-03T11:19:09;28.20;99.90
23987;DHT22;12514;52.140;5.602;2022-08-03T11:38:10;28.70;99.90
23987;DHT22;12514;52.140;5.602;2022-08-03T11:40:52;28.80;99.90
23987;DHT22;12514;52.140;5.602;2022-08-03T11:48:37;28.90;99.90
23987;DHT22;12514;52.140;5.602;2022-08-03T11:51:05;28.90;99.90
23987;DHT22;12514;52.140;5.602;2022-08-03T11:53:31;28.80;99.90
23987;DHT22;12514;52.140;5.602;2022-08-03T11:56:01;28.80;99.90
23987;DHT22;12514;52.140;5.602;2022-08-03T11:58:27;28.80;99.90
23987;DHT22;12514;52.140;5.602;2022-08-03T12:04:14;29.00;99.90
23987;DHT22;12514;52.140;5.602;2022-08-03T12:06:40;29.10;99.90
23987;DHT22;12514;52.140;5.602;2022-08-03T12:09:21;29.20;99.90
23987;DHT22;12514;52.140;5.602;2022-08-03T12:11:48;29.20;99.90
23987;DHT22;12514;52.140;5.602;2022-08-03T12:14:19;29.20;99.90
23987;DHT22;12514;52.140;5.602;2022-08-03T12:16:48;29.30;99.90
23987;DHT22;12514;52.140;5.602;2022-08-03T12:19:14;29.40;99.90
23987;DHT22;12514;52.140;5.602;2022-08-03T12:21:47;29.50;99.90
23987;DHT22;12514;52.140;5.602;2022-08-03T12:24:13;29.50;99.90
23987;DHT22;12514;52.140;5.602;2022-08-03T12:27:05;29.50;99.90
23987;DHT22;12514;52.140;5.602;2022-08-03T12:29:30;29.60;99.90
23987;DHT22;12514;52.140;5.602;2022-08-03T12:31:56;29.50;99.90
23987;DHT22;12514;52.140;5.602;2022-08-03T12:34:22;29.40;99.90
23987;DHT22;12514;52.140;5.602;2022-08-03T12:36:52;29.40;99.90
23987;DHT22;12514;52.140;5.602;2022-08-03T12:39:22;29.50;99.90
23987;DHT22;12514;52.140;5.602;2022-08-03T12:41:53;29.50;99.90
23987;DHT22;12514;52.140;5.602;2022-08-03T12:44:29;29.70;99.90
23987;DHT22;12514;52.140;5.602;2022-08-03T12:46:57;29.80;99.90
23987;DHT22;12514;52.140;5.602;2022-08-03T12:49:23;29.80;99.90
23987;DHT22;12514;52.140;5.602;2022-08-03T12:54:32;29.90;99.90
23987;DHT22;12514;52.140;5.602;2022-08-03T12:57:04;30.00;99.90
23987;DHT22;12514;52.140;5.602;2022-08-03T13:01:57;30.20;99.90
23987;DHT22;12514;52.140;5.602;2022-08-03T13:04:34;30.10;99.90
23987;DHT22;12514;52.140;5.602;2022-08-03T13:07:04;30.10;99.90
23987;DHT22;12514;52.140;5.602;2022-08-03T13:09:39;30.20;99.90
23987;DHT22;12514;52.140;5.602;2022-08-03T13:12:07;30.40;99.90
23987;DHT22;12514;52.140;5.602;2022-08-03T13:14:33;30.50;99.90
23987;DHT22;12514;52.140;5.602;2022-08-03T13:16:59;30.50;99.90
23987;DHT22;12514;52.140;5.602;2022-08-03T13:19:25;30.60;99.90
23987;DHT22;12514;52.140;5.602;2022-08-03T13:21:51;30.60;99.90
23987;DHT22;12514;52.140;5.602;2022-08-03T13:24:16;30.60;99.90
23987;DHT22;12514;52.140;5.602;2022-08-03T13:26:42;30.60;99.90
23987;DHT22;12514;52.140;5.602;2022-08-03T13:29:08;30.60;99.90
23987;DHT22;12514;52.140;5.602;2022-08-03T13:34:55;30.60;99.90
23987;DHT22;12514;52.140;5.602;2022-08-03T13:37:21;30.50;99.90
23987;DHT22;12514;52.140;5.602;2022-08-03T13:39:47;30.50;99.90
23987;DHT22;12514;52.140;5.602;2022-08-03T13:42:12;30.50;99.90
23987;DHT22;12514;52.140;5.602;2022-08-03T13:44:38;30.60;99.90
23987;DHT22;12514;52.140;5.602;2022-08-03T13:50:26;30.70;99.90
23987;DHT22;12514;52.140;5.602;2022-08-03T13:52:52;30.60;99.90
23987;DHT22;12514;52.140;5.602;2022-08-03T13:55:18;30.70;99.90
23987;DHT22;12514;52.140;5.602;2022-08-03T13:57:43;30.60;99.90
23987;DHT22;12514;52.140;5.602;2022-08-03T14:00:09;30.70;99.90
23987;DHT22;12514;52.140;5.602;2022-08-03T14:02:37;30.60;99.90
23987;DHT22;12514;52.140;5.602;2022-08-03T14:05:03;30.70;99.90
23987;DHT22;12514;52.140;5.602;2022-08-03T14:07:28;30.70;99.90
23987;DHT22;12514;52.140;5.602;2022-08-03T14:09:54;30.70;99.90
23987;DHT22;12514;52.140;5.602;2022-08-03T14:12:21;30.50;99.90
23987;DHT22;12514;52.140;5.602;2022-08-03T14:14:46;30.70;99.90
23987;DHT22;12514;52.140;5.602;2022-08-03T14:17:12;30.80;99.90
23987;DHT22;12514;52.140;5.602;2022-08-03T14:19:37;30.80;99.90
23987;DHT22;12514;52.140;5.602;2022-08-03T14:22:03;30.70;99.90
23987;DHT22;12514;52.140;5.602;2022-08-03T14:24:28;30.70;99.90
23987;DHT22;12514;52.140;5.602;2022-08-03T14:26:54;30.60;99.90
23987;DHT22;12514;52.140;5.602;2022-08-03T14:29:19;30.60;99.90
23987;DHT22;12514;52.140;5.602;2022-08-03T14:31:45;30.70;99.90
23987;DHT22;12514;52.140;5.602;2022-08-03T14:34:11;30.80;99.90
23987;DHT22;12514;52.140;5.602;2022-08-03T14:36:36;30.80;99.90
23987;DHT22;12514;52.140;5.602;2022-08-03T14:39:03;30.90;99.90
23987;DHT22;12514;52.140;5.602;2022-08-03T14:41:28;30.80;99.90
23987;DHT22;12514;52.140;5.602;2022-08-03T14:43:54;30.80;99.90
23987;DHT22;12514;52.140;5.602;2022-08-03T14:46:21;30.80;99.90
23987;DHT22;12514;52.140;5.602;2022-08-03T14:48:46;30.80;99.90
23987;DHT22;12514;52.140;5.602;2022-08-03T14:51:12;30.80;99.90
23987;DHT22;12514;52.140;5.602;2022-08-03T14:53:38;30.80;99.90
23987;DHT22;12514;52.140;5.602;2022-08-03T14:56:04;30.70;99.90
23987;DHT22;12514;52.140;5.602;2022-08-03T14:58:30;30.70;99.90
23987;DHT22;12514;52.140;5.602;2022-08-03T15:00:56;30.70;99.90
23987;DHT22;12514;52.140;5.602;2022-08-03T15:03:23;30.70;99.90
23987;DHT22;12514;52.140;5.602;2022-08-03T15:05:53;30.90;99.90
23987;DHT22;12514;52.140;5.602;2022-08-03T15:08:19;31.00;99.90
23987;DHT22;12514;52.140;5.602;2022-08-03T15:10:45;31.10;99.90
23987;DHT22;12514;52.140;5.602;2022-08-03T15:13:14;31.00;99.90
23987;DHT22;12514;52.140;5.602;2022-08-03T15:15:40;31.10;99.90
23987;DHT22;12514;52.140;5.602;2022-08-03T15:18:07;30.90;99.90
23987;DHT22;12514;52.140;5.602;2022-08-03T15:20:32;30.90;99.90
23987;DHT22;12514;52.140;5.602;2022-08-03T15:22:58;31.00;99.90
23987;DHT22;12514;52.140;5.602;2022-08-03T15:25:23;31.10;99.90
23987;DHT22;12514;52.140;5.602;2022-08-03T15:27:59;30.90;99.90
23987;DHT22;12514;52.140;5.602;2022-08-03T15:30:32;31.00;99.90
23987;DHT22;12514;52.140;5.602;2022-08-03T15:35:40;31.10;99.90
23987;DHT22;12514;52.140;5.602;2022-08-03T15:38:15;31.00;99.90
23987;DHT22;12514;52.140;5.602;2022-08-03T15:40:46;31.00;99.90
23987;DHT22;12514;52.140;5.602;2022-08-03T15:43:15;30.80;99.90
23987;DHT22;12514;52.140;5.602;2022-08-03T15:45:41;31.00;99.90
23987;DHT22;12514;52.140;5.602;2022-08-03T15:48:15;31.00;99.90
23987;DHT22;12514;52.140;5.602;2022-08-03T15:50:44;31.00;99.90
23987;DHT22;12514;52.140;5.602;2022-08-03T15:53:10;31.00;99.90
23987;DHT22;12514;52.140;5.602;2022-08-03T15:55:35;31.00;99.90
23987;DHT22;12514;52.140;5.602;2022-08-03T15:58:01;30.80;99.90
23987;DHT22;12514;52.140;5.602;2022-08-03T16:00:27;30.70;99.90
23987;DHT22;12514;52.140;5.602;2022-08-03T16:02:53;30.70;99.90
23987;DHT22;12514;52.140;5.602;2022-08-03T16:05:20;30.80;99.90
23987;DHT22;12514;52.140;5.602;2022-08-03T16:07:46;30.80;99.90
23987;DHT22;12514;52.140;5.602;2022-08-03T16:10:16;30.90;99.90
23987;DHT22;12514;52.140;5.602;2022-08-03T16:12:42;30.90;99.90
23987;DHT22;12514;52.140;5.602;2022-08-03T16:15:09;30.80;99.90
23987;DHT22;12514;52.140;5.602;2022-08-03T16:17:35;30.90;99.90
23987;DHT22;12514;52.140;5.602;2022-08-03T16:20:01;30.80;99.90
23987;DHT22;12514;52.140;5.602;2022-08-03T16:22:27;30.80;99.90
23987;DHT22;12514;52.140;5.602;2022-08-03T16:24:53;30.70;99.90
23987;DHT22;12514;52.140;5.602;2022-08-03T16:27:20;30.70;99.90
23987;DHT22;12514;52.140;5.602;2022-08-03T16:29:45;30.60;99.90
23987;DHT22;12514;52.140;5.602;2022-08-03T16:32:11;30.30;99.90
23987;DHT22;12514;52.140;5.602;2022-08-03T16:34:37;30.50;99.90
23987;DHT22;12514;52.140;5.602;2022-08-03T16:37:04;30.50;99.90
23987;DHT22;12514;52.140;5.602;2022-08-03T16:39:30;30.40;99.90
23987;DHT22;12514;52.140;5.602;2022-08-03T16:41:56;30.30;99.90
23987;DHT22;12514;52.140;5.602;2022-08-03T16:44:22;30.40;99.90
23987;DHT22;12514;52.140;5.602;2022-08-03T16:46:48;30.40;99.90
23987;DHT22;12514;52.140;5.602;2022-08-03T16:49:13;30.20;99.90
23987;DHT22;12514;52.140;5.602;2022-08-03T16:51:40;30.40;99.90
23987;DHT22;12514;52.140;5.602;2022-08-03T16:54:06;30.50;99.90
23987;DHT22;12514;52.140;5.602;2022-08-03T16:56:32;30.60;99.90
23987;DHT22;12514;52.140;5.602;2022-08-03T16:59:01;30.80;99.90
23987;DHT22;12514;52.140;5.602;2022-08-03T17:01:27;30.90;99.90
23987;DHT22;12514;52.140;5.602;2022-08-03T17:04:00;30.90;99.90
23987;DHT22;12514;52.140;5.602;2022-08-03T17:09:53;30.80;99.90